createdAt,value
2019-03-31T00:00:34.151Z,444.41
2019-03-31T00:01:34.163Z,445.98
2019-03-31T00:02:34.136Z,439.20
2019-03-31T00:03:34.127Z,441.80
2019-03-31T00:04:34.198Z,445.51
2019-03-31T00:05:37.089Z,446.52
2019-03-31T00:06:34.081Z,442.68
2019-03-31T00:07:34.081Z,440.93
2019-03-31T00:08:34.075Z,442.11
2019-03-31T00:09:34.050Z,444.77
2019-03-31T00:10:34.048Z,442.00
2019-03-31T00:11:34.064Z,445.91
2019-03-31T00:12:34.049Z,445.07
2019-03-31T00:13:34.012Z,446.69
2019-03-31T00:14:34.005Z,445.30
2019-03-31T00:15:33.999Z,445.57
2019-03-31T00:16:33.984Z,444.61
2019-03-31T00:17:33.992Z,444.03
2019-03-31T00:18:34.078Z,440.95
2019-03-31T00:19:33.929Z,441.97
2019-03-31T00:20:33.935Z,443.46
2019-03-31T00:21:33.921Z,442.20
2019-03-31T00:22:33.927Z,443.61
2019-03-31T00:23:33.960Z,439.21
2019-03-31T00:24:33.913Z,444.39
2019-03-31T00:25:33.894Z,443.93
2019-03-31T00:26:33.867Z,442.21
2019-03-31T00:27:33.857Z,445.23
2019-03-31T00:28:33.861Z,442.55
2019-03-31T00:29:33.835Z,438.48
2019-03-31T00:30:33.833Z,437.46
2019-03-31T00:31:33.821Z,444.06
2019-03-31T00:32:33.799Z,443.16
2019-03-31T00:33:33.800Z,437.53
2019-03-31T00:34:33.785Z,436.82
2019-03-31T00:35:33.778Z,443.55
2019-03-31T00:36:33.761Z,441.84
2019-03-31T00:37:33.756Z,442.49
2019-03-31T00:38:33.770Z,441.11
2019-03-31T00:39:33.714Z,442.92
2019-03-31T00:40:33.704Z,441.88
2019-03-31T00:41:33.694Z,445.81
2019-03-31T00:42:33.691Z,441.17
2019-03-31T00:43:33.691Z,440.17
2019-03-31T00:44:33.705Z,442.53
2019-03-31T00:45:33.698Z,442.36
2019-03-31T00:46:33.638Z,438.42
2019-03-31T00:47:33.626Z,439.09
2019-03-31T00:48:33.653Z,437.99
2019-03-31T00:49:33.617Z,439.99
2019-03-31T00:50:33.620Z,441.61
2019-03-31T00:51:33.586Z,439.19
2019-03-31T00:52:33.570Z,444.86
2019-03-31T00:53:33.556Z,443.56
2019-03-31T00:54:33.565Z,439.90
2019-03-31T00:55:33.568Z,438.57
2019-03-31T00:56:33.544Z,440.64
2019-03-31T00:57:33.534Z,444.11
2019-03-31T00:58:33.527Z,445.02
2019-03-31T00:59:33.498Z,441.81
2019-03-31T01:00:33.507Z,441.03
2019-03-31T01:01:36.724Z,440.58
2019-03-31T01:02:33.473Z,442.42
2019-03-31T01:03:33.464Z,442.01
2019-03-31T01:04:33.466Z,443.56
2019-03-31T01:05:33.433Z,442.21
2019-03-31T01:06:33.460Z,441.78
2019-03-31T01:07:33.414Z,440.82
2019-03-31T01:08:33.407Z,438.65
2019-03-31T01:09:33.385Z,438.57
2019-03-31T01:10:33.386Z,443.82
2019-03-31T01:11:33.387Z,438.89
2019-03-31T01:12:33.371Z,445.50
2019-03-31T01:13:33.335Z,444.80
2019-03-31T01:14:33.341Z,437.91
2019-03-31T01:15:33.327Z,442.15
2019-03-31T01:16:33.328Z,444.43
2019-03-31T01:17:33.323Z,443.05
2019-03-31T01:18:33.285Z,440.51
2019-03-31T01:19:33.281Z,445.61
2019-03-31T01:20:33.275Z,443.70
2019-03-31T01:21:33.278Z,444.65
2019-03-31T01:22:33.257Z,443.62
2019-03-31T01:23:33.225Z,447.78
2019-03-31T01:24:33.246Z,449.92
2019-03-31T01:25:33.226Z,441.09
2019-03-31T01:26:33.203Z,441.10
2019-03-31T01:27:33.210Z,442.74
2019-03-31T01:28:33.178Z,447.09
2019-03-31T01:29:33.163Z,440.47
2019-03-31T01:30:33.157Z,441.06
2019-03-31T01:31:33.136Z,442.79
2019-03-31T01:32:33.168Z,438.65
2019-03-31T01:33:33.121Z,441.65
2019-03-31T01:34:33.122Z,442.29
2019-03-31T01:35:33.103Z,446.56
2019-03-31T01:36:33.086Z,444.64
2019-03-31T01:37:33.068Z,440.76
2019-03-31T01:38:33.100Z,440.16
2019-03-31T01:39:33.061Z,438.64
2019-03-31T01:40:33.048Z,443.22
2019-03-31T01:41:33.038Z,443.78
2019-03-31T01:42:33.022Z,446.71
2019-03-31T01:43:33.004Z,444.02
2019-03-31T01:44:33.023Z,445.33
2019-03-31T01:45:32.997Z,446.95
2019-03-31T01:46:32.981Z,449.72
2019-03-31T01:47:32.979Z,448.38
2019-03-31T01:48:32.960Z,445.20
2019-03-31T01:49:32.969Z,447.40
2019-03-31T01:50:32.947Z,441.17
2019-03-31T01:51:32.929Z,441.10
2019-03-31T01:52:32.918Z,450.02
2019-03-31T01:53:32.902Z,441.20
2019-03-31T01:54:32.883Z,444.54
2019-03-31T01:55:32.894Z,444.53
2019-03-31T01:56:32.860Z,443.50
2019-03-31T01:57:32.854Z,442.14
2019-03-31T01:58:32.845Z,445.42
2019-03-31T01:59:32.834Z,442.00
2019-03-31T02:00:32.848Z,447.88
2019-03-31T02:01:32.814Z,445.53
2019-03-31T02:02:32.812Z,448.21
2019-03-31T02:03:32.789Z,444.68
2019-03-31T02:04:32.788Z,438.20
2019-03-31T02:05:32.753Z,439.69
2019-03-31T02:06:32.821Z,442.49
2019-03-31T02:07:32.744Z,441.24
2019-03-31T02:08:32.723Z,434.32
2019-03-31T02:09:32.722Z,445.17
2019-03-31T02:10:32.766Z,439.92
2019-03-31T02:11:32.706Z,441.97
2019-03-31T02:12:32.696Z,439.99
2019-03-31T02:13:32.682Z,447.38
2019-03-31T02:14:32.664Z,441.44
2019-03-31T02:15:32.663Z,438.22
2019-03-31T02:16:32.659Z,442.67
2019-03-31T02:17:32.623Z,437.99
2019-03-31T02:18:32.633Z,449.89
2019-03-31T02:19:32.625Z,440.21
2019-03-31T02:20:32.600Z,437.38
2019-03-31T02:21:32.621Z,446.36
2019-03-31T02:22:32.564Z,442.21
2019-03-31T02:23:32.561Z,443.31
2019-03-31T02:24:32.571Z,444.06
2019-03-31T02:25:32.545Z,439.93
2019-03-31T02:26:32.527Z,437.36
2019-03-31T02:27:32.538Z,437.86
2019-03-31T02:28:32.545Z,438.38
2019-03-31T02:29:32.493Z,441.26
2019-03-31T02:30:32.493Z,441.99
2019-03-31T02:31:32.481Z,442.34
2019-03-31T02:32:32.494Z,437.56
2019-03-31T02:33:32.466Z,440.51
2019-03-31T02:34:32.457Z,435.72
2019-03-31T02:35:32.435Z,440.46
2019-03-31T02:36:32.416Z,446.26
2019-03-31T02:37:32.406Z,436.65
2019-03-31T02:38:32.457Z,440.61
2019-03-31T02:39:32.403Z,435.80
2019-03-31T02:40:32.375Z,441.51
2019-03-31T02:41:32.363Z,447.72
2019-03-31T02:42:32.359Z,437.25
2019-03-31T02:43:32.372Z,436.88
2019-03-31T02:44:32.737Z,441.78
2019-03-31T02:45:32.338Z,436.73
2019-03-31T02:46:32.321Z,440.07
2019-03-31T02:47:32.304Z,439.94
2019-03-31T02:48:32.308Z,442.10
2019-03-31T02:49:32.291Z,436.88
2019-03-31T02:50:32.268Z,439.93
2019-03-31T02:51:32.276Z,443.67
2019-03-31T02:52:32.272Z,439.36
2019-03-31T02:53:32.238Z,440.87
2019-03-31T02:54:32.227Z,437.79
2019-03-31T02:55:32.230Z,436.85
2019-03-31T02:56:32.221Z,438.51
2019-03-31T02:57:32.193Z,435.64
2019-03-31T02:58:32.170Z,440.72
2019-03-31T02:59:32.167Z,436.71
2019-03-31T03:00:32.193Z,436.70
2019-03-31T03:01:32.164Z,439.90
2019-03-31T03:02:41.368Z,445.63
2019-03-31T03:03:33.128Z,441.30
2019-03-31T03:04:32.118Z,437.94
2019-03-31T03:05:32.129Z,436.20
2019-03-31T03:06:32.139Z,440.54
2019-03-31T03:07:32.064Z,433.90
2019-03-31T03:08:32.074Z,441.39
2019-03-31T03:09:32.072Z,436.10
2019-03-31T03:10:32.046Z,442.92
2019-03-31T03:11:32.058Z,438.02
2019-03-31T03:12:32.027Z,437.73
2019-03-31T03:13:32.004Z,441.22
2019-03-31T03:14:32.012Z,440.08
2019-03-31T03:15:31.991Z,437.81
2019-03-31T03:16:32.007Z,438.39
2019-03-31T03:17:31.986Z,439.99
2019-03-31T03:18:31.966Z,442.42
2019-03-31T03:19:31.959Z,442.47
2019-03-31T03:20:31.927Z,441.95
2019-03-31T03:21:31.936Z,433.41
2019-03-31T03:22:31.947Z,443.32
2019-03-31T03:23:31.916Z,441.91
2019-03-31T03:24:31.895Z,446.99
2019-03-31T03:25:31.885Z,438.76
2019-03-31T03:26:31.894Z,446.04
2019-03-31T03:27:31.851Z,441.84
2019-03-31T03:28:31.849Z,445.10
2019-03-31T03:29:31.837Z,438.48
2019-03-31T03:30:31.894Z,448.57
2019-03-31T03:31:31.840Z,441.87
2019-03-31T03:32:31.813Z,445.86
2019-03-31T03:33:31.789Z,440.52
2019-03-31T03:34:31.794Z,436.11
2019-03-31T03:35:31.779Z,437.14
2019-03-31T03:36:31.800Z,435.36
2019-03-31T03:37:31.751Z,440.52
2019-03-31T03:38:31.743Z,441.41
2019-03-31T03:39:31.727Z,439.36
2019-03-31T03:40:31.712Z,444.19
2019-03-31T03:41:31.699Z,442.36
2019-03-31T03:42:31.719Z,436.37
2019-03-31T03:43:31.685Z,437.58
2019-03-31T03:44:31.663Z,439.41
2019-03-31T03:45:31.685Z,445.21
2019-03-31T03:46:31.681Z,435.92
2019-03-31T03:47:31.657Z,438.61
2019-03-31T03:48:31.624Z,441.17
2019-03-31T03:49:31.620Z,438.37
2019-03-31T03:50:31.600Z,438.11
2019-03-31T03:51:31.588Z,434.84
2019-03-31T03:52:31.599Z,442.62
2019-03-31T03:53:31.565Z,438.61
2019-03-31T03:54:31.557Z,432.36
2019-03-31T03:55:31.576Z,439.06
2019-03-31T03:56:31.539Z,434.45
2019-03-31T03:57:31.557Z,442.96
2019-03-31T03:58:31.517Z,437.45
2019-03-31T03:59:31.501Z,444.68
2019-03-31T04:00:31.503Z,436.32
2019-03-31T04:01:31.483Z,444.02
2019-03-31T04:02:31.469Z,443.78
2019-03-31T04:03:31.496Z,434.88
2019-03-31T04:04:31.446Z,438.44
2019-03-31T04:05:31.427Z,437.93
2019-03-31T04:06:31.437Z,435.95
2019-03-31T04:07:31.439Z,439.38
2019-03-31T04:08:31.406Z,435.76
2019-03-31T04:09:31.429Z,434.92
2019-03-31T04:10:31.378Z,435.12
2019-03-31T04:11:31.362Z,438.48
2019-03-31T04:12:31.362Z,434.30
2019-03-31T04:13:31.353Z,442.14
2019-03-31T04:14:31.368Z,440.23
2019-03-31T04:15:31.334Z,443.33
2019-03-31T04:16:31.319Z,444.02
2019-03-31T04:17:31.305Z,438.14
2019-03-31T04:18:31.325Z,437.38
2019-03-31T04:19:31.290Z,446.73
2019-03-31T04:20:31.301Z,441.47
2019-03-31T04:21:31.276Z,436.22
2019-03-31T04:22:31.260Z,445.47
2019-03-31T04:23:31.230Z,436.87
2019-03-31T04:24:31.225Z,440.44
2019-03-31T04:25:31.266Z,442.03
2019-03-31T04:26:31.229Z,436.99
2019-03-31T04:27:31.198Z,445.26
2019-03-31T04:28:31.204Z,440.88
2019-03-31T04:29:31.180Z,435.42
2019-03-31T04:30:31.159Z,435.16
2019-03-31T04:31:31.192Z,436.68
2019-03-31T04:32:31.153Z,438.57
2019-03-31T04:33:49.500Z,438.25
2019-03-31T04:34:32.116Z,434.91
2019-03-31T04:35:31.115Z,440.35
2019-03-31T04:36:31.114Z,439.16
2019-03-31T04:37:31.083Z,441.60
2019-03-31T04:38:31.096Z,439.84
2019-03-31T04:39:31.087Z,439.56
2019-03-31T04:40:31.060Z,439.32
2019-03-31T04:41:31.062Z,438.50
2019-03-31T04:42:31.040Z,442.38
2019-03-31T04:43:31.024Z,437.10
2019-03-31T04:44:31.013Z,442.99
2019-03-31T04:45:30.998Z,445.84
2019-03-31T04:46:31.005Z,440.08
2019-03-31T04:47:30.975Z,442.14
2019-03-31T04:48:30.968Z,441.61
2019-03-31T04:49:30.943Z,437.67
2019-03-31T04:50:30.947Z,448.09
2019-03-31T04:51:30.955Z,444.04
2019-03-31T04:52:30.958Z,437.89
2019-03-31T04:53:30.914Z,445.20
2019-03-31T04:54:30.916Z,439.62
2019-03-31T04:55:30.882Z,438.45
2019-03-31T04:56:30.880Z,442.26
2019-03-31T04:57:30.857Z,440.26
2019-03-31T04:58:30.876Z,440.44
2019-03-31T04:59:30.858Z,449.67
2019-03-31T05:00:30.840Z,440.27
2019-03-31T05:01:30.829Z,437.64
2019-03-31T05:02:30.798Z,445.13
2019-03-31T05:03:30.840Z,445.87
2019-03-31T05:04:30.802Z,443.31
2019-03-31T05:05:30.785Z,442.49
2019-03-31T05:06:30.776Z,447.86
2019-03-31T05:07:30.780Z,436.01
2019-03-31T05:08:30.759Z,438.05
2019-03-31T05:09:30.753Z,439.89
2019-03-31T05:10:30.726Z,440.22
2019-03-31T05:11:30.719Z,439.28
2019-03-31T05:12:31.236Z,439.91
2019-03-31T05:13:30.693Z,448.78
2019-03-31T05:14:30.684Z,441.27
2019-03-31T05:15:30.683Z,443.54
2019-03-31T05:16:30.666Z,441.57
2019-03-31T05:17:30.671Z,446.01
2019-03-31T05:18:31.241Z,438.52
2019-03-31T05:19:30.638Z,436.69
2019-03-31T05:20:30.634Z,440.96
2019-03-31T05:21:30.601Z,440.14
2019-03-31T05:22:30.601Z,442.58
2019-03-31T05:23:30.587Z,444.39
2019-03-31T05:24:30.588Z,442.35
2019-03-31T05:25:30.573Z,441.53
2019-03-31T05:26:30.531Z,441.38
2019-03-31T05:27:30.550Z,437.15
2019-03-31T05:28:30.513Z,439.79
2019-03-31T05:29:30.533Z,439.67
2019-03-31T05:30:30.507Z,442.12
2019-03-31T05:31:30.496Z,447.17
2019-03-31T05:32:30.512Z,447.40
2019-03-31T05:33:30.476Z,437.43
2019-03-31T05:34:30.462Z,442.11
2019-03-31T05:35:30.456Z,443.85
2019-03-31T05:36:30.435Z,440.77
2019-03-31T05:37:30.437Z,443.57
2019-03-31T05:38:30.433Z,441.84
2019-03-31T05:39:30.403Z,440.22
2019-03-31T05:40:30.837Z,441.39
2019-03-31T05:41:30.395Z,444.24
2019-03-31T05:42:30.373Z,452.42
2019-03-31T05:43:30.368Z,436.44
2019-03-31T05:44:30.422Z,435.85
2019-03-31T05:45:30.334Z,447.18
2019-03-31T05:46:30.317Z,436.46
2019-03-31T05:47:30.342Z,442.70
2019-03-31T05:48:30.301Z,439.03
2019-03-31T05:49:30.288Z,444.32
2019-03-31T05:50:30.310Z,443.75
2019-03-31T05:51:30.286Z,442.25
2019-03-31T05:52:30.257Z,437.02
2019-03-31T05:53:30.278Z,439.55
2019-03-31T05:54:30.243Z,436.22
2019-03-31T05:55:30.236Z,438.26
2019-03-31T05:56:30.261Z,438.10
2019-03-31T05:57:30.207Z,437.70
2019-03-31T05:58:30.187Z,438.03
2019-03-31T05:59:30.198Z,440.59
2019-03-31T06:00:30.169Z,439.38
2019-03-31T06:01:30.154Z,436.84
2019-03-31T06:02:30.180Z,439.21
2019-03-31T06:03:30.190Z,434.60
2019-03-31T06:04:33.359Z,440.18
2019-03-31T06:05:30.123Z,438.27
2019-03-31T06:06:30.103Z,440.30
2019-03-31T06:07:30.087Z,439.94
2019-03-31T06:08:30.099Z,439.08
2019-03-31T06:09:30.069Z,444.92
2019-03-31T06:10:30.050Z,442.66
2019-03-31T06:11:30.043Z,442.99
2019-03-31T06:12:30.038Z,442.78
2019-03-31T06:13:30.075Z,453.78
2019-03-31T06:14:30.023Z,441.86
2019-03-31T06:15:30.020Z,442.60
2019-03-31T06:16:30.019Z,443.78
2019-03-31T06:17:29.985Z,444.60
2019-03-31T06:18:29.971Z,444.81
2019-03-31T06:19:29.974Z,445.07
2019-03-31T06:20:29.943Z,444.69
2019-03-31T06:21:29.946Z,442.05
2019-03-31T06:22:30.684Z,442.01
2019-03-31T06:23:29.943Z,445.31
2019-03-31T06:24:29.890Z,444.68
2019-03-31T06:25:29.893Z,446.00
2019-03-31T06:26:29.908Z,444.17
2019-03-31T06:27:29.875Z,446.61
2019-03-31T06:28:29.889Z,444.23
2019-03-31T06:29:29.883Z,442.02
2019-03-31T06:30:29.863Z,451.65
2019-03-31T06:31:29.847Z,440.77
2019-03-31T06:32:29.825Z,444.03
2019-03-31T06:33:29.819Z,445.07
2019-03-31T06:34:29.814Z,446.43
2019-03-31T06:35:29.871Z,442.06
2019-03-31T06:36:29.820Z,438.72
2019-03-31T06:37:29.764Z,445.05
2019-03-31T06:38:29.747Z,440.30
2019-03-31T06:39:29.751Z,433.74
2019-03-31T06:40:29.750Z,440.64
2019-03-31T06:41:29.713Z,441.90
2019-03-31T06:42:29.719Z,442.86
2019-03-31T06:43:29.688Z,440.81
2019-03-31T06:44:29.680Z,437.21
2019-03-31T06:45:29.688Z,436.63
2019-03-31T06:46:29.681Z,443.63
2019-03-31T06:47:29.652Z,433.48
2019-03-31T06:48:29.642Z,438.06
2019-03-31T06:49:29.644Z,442.05
2019-03-31T06:50:29.625Z,441.15
2019-03-31T06:51:29.626Z,446.33
2019-03-31T06:52:29.593Z,434.20
2019-03-31T06:53:29.573Z,440.47
2019-03-31T06:54:29.575Z,437.58
2019-03-31T06:55:29.595Z,439.43
2019-03-31T06:56:29.547Z,437.38
2019-03-31T06:57:29.532Z,435.79
2019-03-31T06:58:29.532Z,437.88
2019-03-31T06:59:29.518Z,438.54
2019-03-31T07:00:29.508Z,431.18
2019-03-31T07:01:29.514Z,438.14
2019-03-31T07:02:29.493Z,435.38
2019-03-31T07:03:29.467Z,431.26
2019-03-31T07:04:29.451Z,439.09
2019-03-31T07:05:29.459Z,427.17
2019-03-31T07:06:29.480Z,431.50
2019-03-31T07:07:29.433Z,423.79
2019-03-31T07:08:29.416Z,439.18
2019-03-31T07:09:29.416Z,429.63
2019-03-31T07:10:29.388Z,429.35
2019-03-31T07:11:29.389Z,428.59
2019-03-31T07:12:29.411Z,418.39
2019-03-31T07:13:29.364Z,410.60
2019-03-31T07:14:29.339Z,427.94
2019-03-31T07:15:29.338Z,427.79
2019-03-31T07:16:29.321Z,432.29
2019-03-31T07:17:29.324Z,420.15
2019-03-31T07:18:29.328Z,421.09
2019-03-31T07:19:29.307Z,420.51
2019-03-31T07:20:29.287Z,435.01
2019-03-31T07:21:29.278Z,423.97
2019-03-31T07:22:29.282Z,440.18
2019-03-31T07:23:29.250Z,419.00
2019-03-31T07:24:29.234Z,432.59
2019-03-31T07:25:29.224Z,443.26
2019-03-31T07:26:29.218Z,426.51
2019-03-31T07:27:29.227Z,432.62
2019-03-31T07:28:29.205Z,422.44
2019-03-31T07:29:29.178Z,424.32
2019-03-31T07:30:29.179Z,429.75
2019-03-31T07:31:29.171Z,436.34
2019-03-31T07:32:29.173Z,432.45
2019-03-31T07:33:29.144Z,419.47
2019-03-31T07:34:29.129Z,434.94
2019-03-31T07:35:29.112Z,418.48
2019-03-31T07:36:29.119Z,427.27
2019-03-31T07:37:29.091Z,427.14
2019-03-31T07:38:38.719Z,434.88
2019-03-31T07:39:30.358Z,432.84
2019-03-31T07:40:29.254Z,419.87
2019-03-31T07:41:29.122Z,443.31
2019-03-31T07:42:29.075Z,430.17
2019-03-31T07:43:29.041Z,403.82
2019-03-31T07:44:29.062Z,427.02
2019-03-31T07:45:29.313Z,414.67
2019-03-31T07:46:28.987Z,420.96
2019-03-31T07:47:28.977Z,426.28
2019-03-31T07:48:28.964Z,433.11
2019-03-31T07:49:28.950Z,429.30
2019-03-31T07:50:28.986Z,434.90
2019-03-31T07:51:28.953Z,413.99
2019-03-31T07:52:28.931Z,433.29
2019-03-31T07:53:28.924Z,435.87
2019-03-31T07:54:28.907Z,418.19
2019-03-31T07:55:28.900Z,432.35
2019-03-31T07:56:28.919Z,438.41
2019-03-31T07:57:28.872Z,424.53
2019-03-31T07:58:28.900Z,436.10
2019-03-31T07:59:28.916Z,432.75
2019-03-31T08:00:28.861Z,441.25
2019-03-31T08:01:28.826Z,448.65
2019-03-31T08:02:28.855Z,423.97
2019-03-31T08:03:28.811Z,426.44
2019-03-31T08:04:28.829Z,430.87
2019-03-31T08:05:33.293Z,429.80
2019-03-31T08:06:29.763Z,441.15
2019-03-31T08:07:28.777Z,441.93
2019-03-31T08:08:28.748Z,444.88
2019-03-31T08:09:28.734Z,432.66
2019-03-31T08:10:28.744Z,441.18
2019-03-31T08:11:28.726Z,454.29
2019-03-31T08:12:28.743Z,447.34
2019-03-31T08:13:28.720Z,445.59
2019-03-31T08:14:28.688Z,431.39
2019-03-31T08:15:28.698Z,450.21
2019-03-31T08:16:28.661Z,439.35
2019-03-31T08:17:28.683Z,448.13
2019-03-31T08:18:28.640Z,437.16
2019-03-31T08:19:28.628Z,439.51
2019-03-31T08:20:28.617Z,447.67
2019-03-31T08:21:28.606Z,450.07
2019-03-31T08:22:28.634Z,452.10
2019-03-31T08:23:28.599Z,445.46
2019-03-31T08:24:28.582Z,443.82
2019-03-31T08:25:28.579Z,441.59
2019-03-31T08:26:28.551Z,436.62
2019-03-31T08:27:28.566Z,442.40
2019-03-31T08:28:28.532Z,452.43
2019-03-31T08:29:28.515Z,450.08
2019-03-31T08:30:28.513Z,456.35
2019-03-31T08:31:28.513Z,449.73
2019-03-31T08:32:28.736Z,452.10
2019-03-31T08:33:28.532Z,449.52
2019-03-31T08:34:28.473Z,453.38
2019-03-31T08:35:28.468Z,453.99
2019-03-31T08:36:28.469Z,443.52
2019-03-31T08:37:28.430Z,445.89
2019-03-31T08:38:28.414Z,447.30
2019-03-31T08:39:28.421Z,447.60
2019-03-31T08:40:28.388Z,451.69
2019-03-31T08:41:28.383Z,451.94
2019-03-31T08:42:28.402Z,457.08
2019-03-31T08:43:28.371Z,453.19
2019-03-31T08:44:28.822Z,454.43
2019-03-31T08:45:30.399Z,443.54
2019-03-31T08:46:28.351Z,444.53
2019-03-31T08:47:28.327Z,460.85
2019-03-31T08:48:28.315Z,446.67
2019-03-31T08:49:28.325Z,430.16
2019-03-31T08:50:28.286Z,453.09
2019-03-31T08:51:28.280Z,457.90
2019-03-31T08:52:28.330Z,442.83
2019-03-31T08:53:28.249Z,442.02
2019-03-31T08:54:28.259Z,449.40
2019-03-31T08:55:28.246Z,438.87
2019-03-31T08:56:28.257Z,442.86
2019-03-31T08:57:28.215Z,438.18
2019-03-31T08:58:28.216Z,441.58
2019-03-31T08:59:28.191Z,442.74
2019-03-31T09:00:28.174Z,448.42
2019-03-31T09:01:28.196Z,442.56
2019-03-31T09:02:28.177Z,444.75
2019-03-31T09:03:28.178Z,440.40
2019-03-31T09:04:28.132Z,438.93
2019-03-31T09:05:28.117Z,445.44
2019-03-31T09:06:28.130Z,441.89
2019-03-31T09:07:28.122Z,451.93
2019-03-31T09:08:28.115Z,444.68
2019-03-31T09:09:28.090Z,447.16
2019-03-31T09:10:28.056Z,440.79
2019-03-31T09:11:28.056Z,445.64
2019-03-31T09:12:28.065Z,432.88
2019-03-31T09:13:28.044Z,447.34
2019-03-31T09:14:28.032Z,454.83
2019-03-31T09:15:28.017Z,439.45
2019-03-31T09:16:27.997Z,446.76
2019-03-31T09:17:28.000Z,446.07
2019-03-31T09:18:27.983Z,443.46
2019-03-31T09:19:28.010Z,442.82
2019-03-31T09:20:27.979Z,446.46
2019-03-31T09:21:27.952Z,449.58
2019-03-31T09:22:27.934Z,449.41
2019-03-31T09:23:27.922Z,440.69
2019-03-31T09:24:27.940Z,446.00
2019-03-31T09:25:27.896Z,442.06
2019-03-31T09:26:27.908Z,441.52
2019-03-31T09:27:27.883Z,442.76
2019-03-31T09:28:27.870Z,450.28
2019-03-31T09:29:27.947Z,442.66
2019-03-31T09:30:27.863Z,443.09
2019-03-31T09:31:27.838Z,435.05
2019-03-31T09:32:27.844Z,445.02
2019-03-31T09:33:27.807Z,450.21
2019-03-31T09:34:27.809Z,447.14
2019-03-31T09:35:27.836Z,447.73
2019-03-31T09:36:27.792Z,450.92
2019-03-31T09:37:27.774Z,452.81
2019-03-31T09:38:27.799Z,447.71
2019-03-31T09:39:27.746Z,448.20
2019-03-31T09:40:27.775Z,454.21
2019-03-31T09:41:27.784Z,440.57
2019-03-31T09:42:27.712Z,448.31
2019-03-31T09:43:27.691Z,449.74
2019-03-31T09:44:30.280Z,454.49
2019-03-31T09:45:27.701Z,453.11
2019-03-31T09:46:27.691Z,449.33
2019-03-31T09:47:27.655Z,447.52
2019-03-31T09:48:27.649Z,451.63
2019-03-31T09:49:27.673Z,452.08
2019-03-31T09:50:27.619Z,449.24
2019-03-31T09:51:27.598Z,447.86
2019-03-31T09:52:27.616Z,448.27
2019-03-31T09:53:27.594Z,448.08
2019-03-31T09:54:27.627Z,451.22
2019-03-31T09:55:27.583Z,447.88
2019-03-31T09:56:27.589Z,453.44
2019-03-31T09:57:27.547Z,446.52
2019-03-31T09:58:27.626Z,449.09
2019-03-31T09:59:27.527Z,444.61
2019-03-31T10:00:27.518Z,449.67
2019-03-31T10:01:27.527Z,456.32
2019-03-31T10:02:27.539Z,450.40
2019-03-31T10:03:27.482Z,453.35
2019-03-31T10:04:27.469Z,459.17
2019-03-31T10:05:27.454Z,454.38
2019-03-31T10:06:30.409Z,445.51
2019-03-31T10:07:27.438Z,447.49
2019-03-31T10:08:27.449Z,454.98
2019-03-31T10:09:27.407Z,453.27
2019-03-31T10:10:27.403Z,449.80
2019-03-31T10:11:27.400Z,447.55
2019-03-31T10:12:27.380Z,481.58
2019-03-31T10:13:27.404Z,446.00
2019-03-31T10:14:27.358Z,444.86
2019-03-31T10:15:27.342Z,448.22
2019-03-31T10:16:27.330Z,448.79
2019-03-31T10:17:27.328Z,449.52
2019-03-31T10:18:27.325Z,441.77
2019-03-31T10:19:27.341Z,448.51
2019-03-31T10:20:27.296Z,441.94
2019-03-31T10:21:27.293Z,446.09
2019-03-31T10:22:27.284Z,447.61
2019-03-31T10:23:27.275Z,443.87
2019-03-31T10:24:27.269Z,457.32
2019-03-31T10:25:27.243Z,450.44
2019-03-31T10:26:32.082Z,443.01
2019-03-31T10:27:28.215Z,445.31
2019-03-31T10:28:27.209Z,445.51
2019-03-31T10:29:27.207Z,442.89
2019-03-31T10:30:27.187Z,446.09
2019-03-31T10:31:27.186Z,446.90
2019-03-31T10:32:27.156Z,437.68
2019-03-31T10:33:27.159Z,447.83
2019-03-31T10:34:27.162Z,451.73
2019-03-31T10:35:27.131Z,442.62
2019-03-31T10:36:27.147Z,439.64
2019-03-31T10:37:27.103Z,441.28
2019-03-31T10:38:27.092Z,438.29
2019-03-31T10:39:27.106Z,444.30
2019-03-31T10:40:27.069Z,441.97
2019-03-31T10:41:27.067Z,446.03
2019-03-31T10:42:27.053Z,437.46
2019-03-31T10:43:27.054Z,451.00
2019-03-31T10:44:27.048Z,430.21
2019-03-31T10:45:27.026Z,440.21
2019-03-31T10:46:26.998Z,446.52
2019-03-31T10:47:27.018Z,441.78
2019-03-31T10:48:26.980Z,443.09
2019-03-31T10:49:27.003Z,444.10
2019-03-31T10:50:26.968Z,444.71
2019-03-31T10:51:26.950Z,430.16
2019-03-31T10:52:26.938Z,442.53
2019-03-31T10:53:26.946Z,438.95
2019-03-31T10:54:26.920Z,442.94
2019-03-31T10:55:26.923Z,435.19
2019-03-31T10:56:27.024Z,438.94
2019-03-31T10:57:26.890Z,437.33
2019-03-31T10:58:26.866Z,449.57
2019-03-31T10:59:26.856Z,449.56
2019-03-31T11:00:26.898Z,440.16
2019-03-31T11:01:26.837Z,440.03
2019-03-31T11:02:26.834Z,440.80
2019-03-31T11:03:26.819Z,452.59
2019-03-31T11:04:26.804Z,467.69
2019-03-31T11:05:26.816Z,425.26
2019-03-31T11:06:26.789Z,442.78
2019-03-31T11:07:26.772Z,428.83
2019-03-31T11:08:26.758Z,449.43
2019-03-31T11:09:26.744Z,441.78
2019-03-31T11:10:26.768Z,431.82
2019-03-31T11:11:26.729Z,434.59
2019-03-31T11:12:26.714Z,432.57
2019-03-31T11:13:26.705Z,437.02
2019-03-31T11:14:26.697Z,440.37
2019-03-31T11:15:26.695Z,403.86
2019-03-31T11:16:26.711Z,439.45
2019-03-31T11:17:26.684Z,436.81
2019-03-31T11:18:26.646Z,430.46
2019-03-31T11:19:26.624Z,449.90
2019-03-31T11:20:26.625Z,436.42
2019-03-31T11:21:26.612Z,444.11
2019-03-31T11:22:26.626Z,424.43
2019-03-31T11:23:26.595Z,400.22
2019-03-31T11:24:26.592Z,428.54
2019-03-31T11:25:29.316Z,420.76
2019-03-31T11:26:26.571Z,448.48
2019-03-31T11:27:26.585Z,460.66
2019-03-31T11:28:26.545Z,444.42
2019-03-31T11:29:26.533Z,427.73
2019-03-31T11:30:26.515Z,433.68
2019-03-31T11:31:26.504Z,433.98
2019-03-31T11:32:26.484Z,454.15
2019-03-31T11:33:26.513Z,422.05
2019-03-31T11:34:26.476Z,413.47
2019-03-31T11:35:26.471Z,432.04
2019-03-31T11:36:26.455Z,407.09
2019-03-31T11:37:26.441Z,434.54
2019-03-31T11:38:26.463Z,406.39
2019-03-31T11:39:26.423Z,446.09
2019-03-31T11:40:26.402Z,455.96
2019-03-31T11:41:26.390Z,414.06
2019-03-31T11:42:26.399Z,416.54
2019-03-31T11:43:26.389Z,394.43
2019-03-31T11:44:27.855Z,445.64
2019-03-31T11:45:26.343Z,455.17
2019-03-31T11:46:26.345Z,429.31
2019-03-31T11:47:26.345Z,423.59
2019-03-31T11:48:26.361Z,393.16
2019-03-31T11:49:26.316Z,417.58
2019-03-31T11:50:26.299Z,412.16
2019-03-31T11:51:26.297Z,399.38
2019-03-31T11:52:26.275Z,420.36
2019-03-31T11:53:26.301Z,417.88
2019-03-31T11:54:26.295Z,398.77
2019-03-31T11:55:26.300Z,404.34
2019-03-31T11:56:26.243Z,407.52
2019-03-31T11:57:26.230Z,361.00
2019-03-31T11:58:26.211Z,422.40
2019-03-31T11:59:26.225Z,408.24
2019-03-31T12:00:26.205Z,377.49
2019-03-31T12:01:26.203Z,437.73
2019-03-31T12:02:27.594Z,408.20
2019-03-31T12:03:26.296Z,340.21
2019-03-31T12:04:26.152Z,415.98
2019-03-31T12:05:26.194Z,401.43
2019-03-31T12:06:26.144Z,412.10
2019-03-31T12:07:28.153Z,392.99
2019-03-31T12:08:26.143Z,335.20
2019-03-31T12:09:26.107Z,439.29
2019-03-31T12:10:26.117Z,413.45
2019-03-31T12:11:26.088Z,433.76
2019-03-31T12:12:26.075Z,395.51
2019-03-31T12:13:26.081Z,384.89
2019-03-31T12:14:26.062Z,387.60
2019-03-31T12:15:26.101Z,370.44
2019-03-31T12:16:26.047Z,389.87
2019-03-31T12:17:26.026Z,405.25
2019-03-31T12:18:26.022Z,407.25
2019-03-31T12:19:26.015Z,407.98
2019-03-31T12:20:26.002Z,403.20
2019-03-31T12:21:26.011Z,381.22
2019-03-31T12:22:25.989Z,340.42
2019-03-31T12:23:25.963Z,403.49
2019-03-31T12:24:25.953Z,415.72
2019-03-31T12:25:25.960Z,412.74
2019-03-31T12:26:25.950Z,400.37
2019-03-31T12:27:25.971Z,416.85
2019-03-31T12:28:25.945Z,440.33